Accueil
METAR-TAF:

METAR-TAF

Aéroports :

Base aérienne

Landivisiau, France

latitude: 48-31N, longitude: 004-09W, altitude: 106 m

Observation

Le bulletin a été fait il y a 26 minutes, à 19:30 UTC
Vent 5 kt de ouest/sud-ouest
Température 12°C
Humidité 94%
Pression 1030 hPa
Visibilité 10 km ou plus
pas de nuages en-dessous de 1500 mètres et pas de cumulonimbus.

METAR: LFRJ 061930Z AUTO 24005KT CAVOK 12/11 Q1030 NOSIG

Heure: 21:56 (19:56 UTC)

Prévision

Le bulletin a été fait il y a 2 heures et 56 minutes, à 17:00 UTC
Prévision valable du 06 à 18 UTC au 07 à 03 UTC
Vent 7 kt de sud-ouest
Visibilité 10 km ou plus
Nuages épars à une hauteur de 2500 ft
Evoluant progressivement
du 06 à 22 UTC au 07 à 01 UTC
Visibilité: 2500 m
brume

TAF: LFRJ 061700Z 0618/0703 23007KT 9999 SCT025 BECMG 0622/0701 2500 BR

Observations et prévisions météorologiques de plus de 4000 aéroports (messages METAR et TAF).

Les stations disponibles sont représentées par des disques jaunes et rouges sur la carte.

Passer la souris dessus pour voir le nom de la station.

Cliquer dessus pour voir les observations et prévisions météorologiques.

Pour changer de carte: cliquez sur les boutons verts avec une croix noire pour zoomer, sur le bouton vert avec un tiret pour effectuer un zoom arrière, ou sur les flèches vertes pour les cartes adjacentes.


METAR-TAF: